Time;durP1;ratioP1;P1;durP2;ratioP2;P2;SDS_P1;SDS_P2;PMS_P1;PMS_P2;Temp;Humidity;BMP_temperature;BMP_pressure;BME280_temperature;BME280_humidity;BME280_pressure;Samples;Min_cycle;Max_cycle;Signal;HPM_P1;HPM_P2
2022/04/15 00:00:41;;;;;;;27.77;17.42;;;;;;;7.53;100.00;102313.16;5062428;28;20036;-70
2022/04/15 00:03:07;;;;;;;28.63;17.65;;;;;;;7.45;100.00;102325.09;5063642;28;20467;-67
2022/04/15 00:05:42;;;;;;;28.88;17.60;;;;;;;7.45;100.00;102319.84;5061177;28;20163;-69
2022/04/15 00:08:09;;;;;;;29.35;17.55;;;;;;;7.41;100.00;102324.09;5063384;28;20029;-69
2022/04/15 00:10:35;;;;;;;30.33;19.08;;;;;;;7.37;100.00;102316.91;5061374;28;20032;-69
2022/04/15 00:13:02;;;;;;;29.17;18.58;;;;;;;7.39;100.00;102317.84;5064567;28;20020;-69
2022/04/15 00:15:27;;;;;;;30.65;19.63;;;;;;;7.32;100.00;102311.47;5060785;28;20074;-69
2022/04/15 00:17:53;;;;;;;30.88;19.02;;;;;;;7.28;100.00;102312.16;5066170;28;20040;-69
2022/04/15 00:20:19;;;;;;;31.35;19.77;;;;;;;7.21;100.00;102312.75;5066213;28;20103;-69
2022/04/15 00:22:45;;;;;;;32.10;21.67;;;;;;;7.19;100.00;102316.13;5066735;28;20060;-69
2022/04/15 00:25:10;;;;;;;32.40;21.50;;;;;;;7.21;100.00;102307.47;5067014;28;20036;-69
2022/04/15 00:27:37;;;;;;;32.97;20.90;;;;;;;7.17;100.00;102318.69;5065549;28;20361;-69
2022/04/15 00:30:04;;;;;;;32.67;21.80;;;;;;;7.04;100.00;102316.38;5068160;28;20491;-69
2022/04/15 00:32:30;;;;;;;31.80;20.60;;;;;;;7.11;100.00;102316.72;5064559;28;20108;-69
2022/04/15 00:34:55;;;;;;;31.13;20.60;;;;;;;7.03;100.00;102325.09;5068013;28;20147;-68
2022/04/15 00:37:21;;;;;;;31.77;21.05;;;;;;;6.95;100.00;102327.41;5065247;28;20111;-68
2022/04/15 00:39:46;;;;;;;33.15;21.77;;;;;;;6.90;100.00;102324.59;5066410;28;20042;-67
2022/04/15 00:42:12;;;;;;;34.22;21.33;;;;;;;6.92;100.00;102330.81;5066808;28;20032;-69
2022/04/15 00:44:38;;;;;;;32.30;21.02;;;;;;;6.86;100.00;102334.88;5065054;28;20057;-69
2022/04/15 00:47:17;;;;;;;31.92;20.35;;;;;;;6.80;100.00;102332.88;5068034;28;20178;-69
2022/04/15 00:49:43;;;;;;;32.97;20.88;;;;;;;6.75;100.00;102334.44;5064612;28;20048;-68
2022/04/15 00:52:12;;;;;;;31.90;21.00;;;;;;;6.68;100.00;102337.63;5066783;28;20024;-68
2022/04/15 00:54:38;;;;;;;30.17;19.48;;;;;;;6.65;100.00;102342.75;5065045;28;20029;-68
2022/04/15 00:57:05;;;;;;;31.98;19.73;;;;;;;6.66;100.00;102341.94;5067444;28;20024;-67
2022/04/15 00:59:31;;;;;;;30.88;19.98;;;;;;;6.47;100.00;102338.47;5064181;28;20031;-68
2022/04/15 01:01:59;;;;;;;30.70;19.30;;;;;;;6.49;100.00;102343.78;5067512;28;20028;-68
2022/04/15 01:04:25;;;;;;;30.58;19.33;;;;;;;6.53;100.00;102336.09;5064636;28;20025;-68
2022/04/15 01:06:53;;;;;;;31.30;20.10;;;;;;;6.47;100.00;102341.09;5066198;28;20040;-69
2022/04/15 01:09:22;;;;;;;31.90;21.17;;;;;;;6.45;100.00;102340.09;5065418;28;20029;-68
2022/04/15 01:11:50;;;;;;;32.10;20.23;;;;;;;6.44;100.00;102338.34;5066057;28;20121;-68
2022/04/15 01:14:17;;;;;;;32.00;20.60;;;;;;;6.30;100.00;102337.69;5065409;28;20017;-68
2022/04/15 01:16:42;;;;;;;31.77;20.73;;;;;;;6.27;100.00;102341.06;5065099;28;20021;-68
2022/04/15 01:19:08;;;;;;;33.85;22.48;;;;;;;6.23;100.00;102348.75;5066544;28;20074;-68
2022/04/15 01:21:35;;;;;;;32.33;21.75;;;;;;;6.17;100.00;102353.72;5064025;28;20028;-69
2022/04/15 01:24:01;;;;;;;31.20;20.50;;;;;;;6.20;100.00;102353.84;5067365;28;20457;-69
2022/04/15 01:26:26;;;;;;;32.42;20.80;;;;;;;6.24;100.00;102351.44;5066859;28;20029;-69
2022/04/15 01:28:51;;;;;;;32.17;20.90;;;;;;;6.16;100.00;102351.91;5066027;28;20033;-69
2022/04/15 01:31:16;;;;;;;30.98;20.38;;;;;;;6.16;100.00;102352.84;5065084;28;20092;-69
2022/04/15 01:33:42;;;;;;;32.05;21.33;;;;;;;6.02;100.00;102353.91;5064964;28;20096;-69
2022/04/15 01:36:07;;;;;;;32.33;21.17;;;;;;;5.97;100.00;102361.56;5066257;28;20059;-69
2022/04/15 01:38:33;;;;;;;32.42;20.73;;;;;;;6.02;100.00;102359.16;5063405;28;20104;-69
2022/04/15 01:40:58;;;;;;;32.47;20.80;;;;;;;5.97;100.00;102360.63;5063607;28;20036;-70
2022/04/15 01:43:24;;;;;;;32.83;21.33;;;;;;;5.99;100.00;102364.28;5065977;28;20112;-69
2022/04/15 01:45:49;;;;;;;32.28;21.40;;;;;;;5.90;100.00;102357.72;5064770;28;20036;-69
2022/04/15 01:48:14;;;;;;;32.92;21.13;;;;;;;5.89;100.00;102357.63;5065066;28;20050;-69
2022/04/15 01:50:40;;;;;;;32.97;21.63;;;;;;;5.90;100.00;102365.59;5065599;28;20020;-69
2022/04/15 01:53:05;;;;;;;31.13;20.00;;;;;;;5.86;100.00;102368.88;5063509;28;20032;-69
2022/04/15 01:55:30;;;;;;;31.27;19.55;;;;;;;5.81;100.00;102370.41;5066806;28;20029;-69
2022/04/15 01:57:56;;;;;;;32.53;19.85;;;;;;;5.67;100.00;102366.22;5063457;28;20036;-69
2022/04/15 02:00:22;;;;;;;32.67;21.70;;;;;;;5.71;100.00;102369.06;5065972;28;20272;-69
2022/04/15 02:02:47;;;;;;;33.92;21.63;;;;;;;5.69;100.00;102364.56;5064474;28;20034;-68
2022/04/15 02:05:12;;;;;;;34.58;22.02;;;;;;;5.67;100.00;102374.09;5064235;28;20021;-68
2022/04/15 02:07:38;;;;;;;33.63;22.17;;;;;;;5.67;100.00;102368.84;5065839;28;20095;-68
2022/04/15 02:10:04;;;;;;;34.67;23.45;;;;;;;5.66;100.00;102370.53;5062714;28;20025;-69
2022/04/15 02:12:30;;;;;;;33.03;21.17;;;;;;;5.70;100.00;102371.59;5062727;28;20031;-68
2022/04/15 02:14:55;;;;;;;32.95;21.20;;;;;;;5.68;100.00;102375.84;5065912;28;20028;-68
2022/04/15 02:17:21;;;;;;;33.17;21.70;;;;;;;5.61;100.00;102377.31;5063580;28;20115;-68
2022/04/15 02:19:47;;;;;;;33.53;22.02;;;;;;;5.50;100.00;102373.25;5064554;28;20035;-68
2022/04/15 02:22:12;;;;;;;33.13;21.08;;;;;;;5.44;100.00;102378.19;5065257;28;20409;-68
2022/04/15 02:24:38;;;;;;;32.28;21.40;;;;;;;5.29;100.00;102388.81;5063045;28;20025;-68
2022/04/15 02:27:03;;;;;;;30.88;20.38;;;;;;;5.30;100.00;102385.34;5065878;28;20379;-68
2022/04/15 02:29:29;;;;;;;35.38;22.40;;;;;;;5.28;100.00;102398.38;5062937;28;20052;-68
2022/04/15 02:31:54;;;;;;;31.70;20.77;;;;;;;5.20;100.00;102387.53;5065219;28;20017;-68
2022/04/15 02:34:19;;;;;;;29.13;17.67;;;;;;;5.17;100.00;102387.38;5064051;28;20459;-69
2022/04/15 02:36:45;;;;;;;29.42;18.48;;;;;;;5.15;100.00;102395.97;5063889;28;20032;-68
2022/04/15 02:39:10;;;;;;;32.03;20.27;;;;;;;5.08;100.00;102394.75;5064625;28;20029;-68
2022/04/15 02:41:39;;;;;;;31.05;20.38;;;;;;;5.04;100.00;102395.44;5062217;28;20025;-69
2022/04/15 02:44:07;;;;;;;30.83;19.30;;;;;;;4.99;100.00;102399.53;5065319;28;20483;-68
2022/04/15 02:46:33;;;;;;;35.53;23.70;;;;;;;5.04;100.00;102396.31;5062066;28;20467;-68
2022/04/15 02:48:59;;;;;;;32.75;20.65;;;;;;;5.04;100.00;102395.44;5062311;28;20025;-68
2022/04/15 02:51:24;;;;;;;34.10;22.77;;;;;;;5.08;100.00;102394.75;5064803;28;20035;-69
2022/04/15 02:53:50;;;;;;;36.22;22.73;;;;;;;5.02;100.00;102395.34;5063211;28;20115;-68
2022/04/15 02:56:15;;;;;;;31.67;21.30;;;;;;;5.03;100.00;102398.88;5063440;28;20035;-68
2022/04/15 02:58:40;;;;;;;33.50;22.52;;;;;;;4.93;100.00;102388.72;5064301;28;20468;-68
2022/04/15 03:01:06;;;;;;;33.65;23.17;;;;;;;4.93;100.00;102399.22;5062285;28;20025;-69
2022/04/15 03:03:33;;;;;;;29.95;18.67;;;;;;;4.90;100.00;102397.31;5065587;28;20024;-68
2022/04/15 03:05:58;;;;;;;34.03;23.42;;;;;;;4.84;100.00;102397.91;5061859;28;20025;-68
2022/04/15 03:08:24;;;;;;;34.70;23.33;;;;;;;4.87;100.00;102392.81;5064465;28;20471;-69
2022/04/15 03:10:49;;;;;;;31.02;19.92;;;;;;;4.84;100.00;102399.63;5063214;28;20114;-69
2022/04/15 03:13:14;;;;;;;29.15;18.23;;;;;;;4.87;100.00;102400.69;5063082;28;20024;-69
2022/04/15 03:15:39;;;;;;;31.20;19.77;;;;;;;4.85;100.00;102396.19;5062952;28;20479;-68
2022/04/15 03:18:05;;;;;;;31.10;19.15;;;;;;;4.81;100.00;102391.63;5061731;28;20037;-69
2022/04/15 03:20:30;;;;;;;32.35;20.90;;;;;;;4.73;100.00;102391.19;5065277;28;20066;-68
2022/04/15 03:22:56;;;;;;;29.60;18.35;;;;;;;4.64;100.00;102398.56;5062180;28;20021;-67
2022/04/15 03:25:21;;;;;;;30.70;19.33;;;;;;;4.63;100.00;102397.69;5063555;28;20024;-69
2022/04/15 03:27:47;;;;;;;30.45;19.38;;;;;;;4.74;100.00;102402.59;5062910;28;20095;-67
2022/04/15 03:30:14;;;;;;;30.75;18.95;;;;;;;4.59;100.00;102398.31;5062698;28;20059;-67
2022/04/15 03:32:50;;;;;;;31.35;20.23;;;;;;;4.64;100.00;102393.31;5064007;28;20081;-67
2022/04/15 03:35:20;;;;;;;30.70;19.02;;;;;;;4.63;100.00;102397.69;5062869;28;20040;-67
2022/04/15 03:37:49;;;;;;;30.27;19.02;;;;;;;4.55;100.00;102401.59;5063041;28;20025;-67
2022/04/15 03:40:15;;;;;;;31.13;20.05;;;;;;;4.55;100.00;102406.84;5062748;28;20028;-67
2022/04/15 03:42:51;;;;;;;31.60;20.25;;;;;;;4.51;100.00;102411.03;5064010;28;20040;-68
2022/04/15 03:45:19;;;;;;;31.60;18.98;;;;;;;4.55;100.00;102412.06;5062954;28;20036;-67
2022/04/15 03:47:48;;;;;;;31.20;20.00;;;;;;;4.52;100.00;102418.03;5063433;28;20033;-67
2022/04/15 03:50:14;;;;;;;32.25;18.83;;;;;;;4.41;100.00;102413.94;5062670;28;20029;-66
2022/04/15 03:52:42;;;;;;;33.05;18.85;;;;;;;4.42;100.00;102412.22;5062922;28;20051;-67
2022/04/15 03:55:11;;;;;;;30.77;19.05;;;;;;;4.46;100.00;102411.59;5061245;28;20119;-67
2022/04/15 03:57:37;;;;;;;33.22;20.10;;;;;;;4.56;100.00;102415.59;5064138;28;20375;-68
2022/04/15 04:00:06;;;;;;;30.88;18.25;;;;;;;4.59;100.00;102420.97;5061138;28;20356;-68
2022/04/15 04:02:31;;;;;;;33.55;20.42;;;;;;;4.64;100.00;102427.38;5060822;28;20025;-68
2022/04/15 04:04:56;;;;;;;31.88;19.58;;;;;;;4.74;100.00;102428.78;5063995;28;20498;-68
2022/04/15 04:07:22;;;;;;;33.33;20.95;;;;;;;4.93;100.00;102433.28;5062165;28;20024;-68
2022/04/15 04:09:47;;;;;;;37.83;24.05;;;;;;;5.04;100.00;102430.41;5062293;28;20029;-67
2022/04/15 04:12:13;;;;;;;42.05;26.33;;;;;;;5.28;100.00;102432.47;5063315;28;20047;-68
2022/04/15 04:14:38;;;;;;;41.78;26.73;;;;;;;5.46;100.00;102431.63;5060989;28;20104;-68
2022/04/15 04:17:03;;;;;;;49.60;31.17;;;;;;;5.62;100.00;102433.28;5064158;28;20055;-68
2022/04/15 04:19:29;;;;;;;76.63;34.22;;;;;;;5.75;100.00;102434.00;5060889;28;20167;-67
2022/04/15 04:21:54;;;;;;;65.90;33.67;;;;;;;5.87;100.00;102433.69;5063382;28;20029;-67
2022/04/15 04:24:19;;;;;;;58.00;33.63;;;;;;;6.01;100.00;102436.13;5062198;28;20032;-67
2022/04/15 04:26:45;;;;;;;88.90;33.40;;;;;;;6.06;100.00;102447.75;5062113;28;20060;-68
2022/04/15 04:29:10;;;;;;;84.85;34.00;;;;;;;6.11;100.00;102440.97;5063250;28;20103;-68
2022/04/15 04:31:35;;;;;;;79.18;33.08;;;;;;;6.17;100.00;102451.78;5060760;28;20032;-68
2022/04/15 04:34:00;;;;;;;69.70;34.50;;;;;;;6.20;100.00;102444.03;5064102;28;20056;-68
2022/04/15 04:36:26;;;;;;;91.90;34.15;;;;;;;6.21;100.00;102453.72;5060993;28;20017;-68
2022/04/15 04:38:51;;;;;;;76.25;33.28;;;;;;;6.26;100.00;102453.94;5062784;28;20029;-69
2022/04/15 04:41:16;;;;;;;106.88;33.70;;;;;;;6.25;100.00;102453.06;5062496;28;20222;-67
2022/04/15 04:43:42;;;;;;;101.78;33.60;;;;;;;6.17;100.00;102457.03;5061338;28;20045;-68
2022/04/15 04:46:08;;;;;;;62.35;31.95;;;;;;;6.21;100.00;102458.97;5063763;28;20032;-67
2022/04/15 04:48:33;;;;;;;72.53;31.85;;;;;;;6.21;100.00;102471.22;5060487;28;20025;-68
2022/04/15 04:50:59;;;;;;;62.90;29.30;;;;;;;6.22;100.00;102466.03;5063620;28;20459;-69
2022/04/15 04:53:24;;;;;;;53.67;26.13;;;;;;;6.17;100.00;102472.78;5061298;28;20024;-67
2022/04/15 04:55:49;;;;;;;47.17;25.80;;;;;;;6.23;100.00;102470.47;5062396;28;20025;-68
2022/04/15 04:58:15;;;;;;;41.13;25.17;;;;;;;6.24;100.00;102476.63;5062586;28;20059;-66
2022/04/15 05:00:40;;;;;;;47.70;24.90;;;;;;;6.17;100.00;102474.53;5060894;28;20087;-67
2022/04/15 05:03:05;;;;;;;39.50;24.67;;;;;;;6.23;100.00;102480.97;5064533;28;20020;-68
2022/04/15 05:05:31;;;;;;;35.80;24.90;;;;;;;6.28;100.00;102484.72;5064175;28;20025;-69
2022/04/15 05:07:56;;;;;;;51.17;23.95;;;;;;;6.26;100.00;102489.00;5066912;28;20028;-67
2022/04/15 05:10:22;;;;;;;59.17;25.20;;;;;;;6.31;100.00;102491.84;5065149;28;20082;-69
2022/04/15 05:12:48;;;;;;;39.92;24.27;;;;;;;6.39;100.00;102490.50;5065628;28;20032;-69
2022/04/15 05:15:13;;;;;;;37.35;23.85;;;;;;;6.39;100.00;102490.50;5066435;28;20020;-68
2022/04/15 05:17:39;;;;;;;39.08;23.95;;;;;;;6.46;100.00;102494.28;5064394;28;20033;-67
2022/04/15 05:20:05;;;;;;;50.47;25.08;;;;;;;6.45;100.00;102503.00;5067367;28;20024;-69
2022/04/15 05:22:31;;;;;;;42.63;24.70;;;;;;;6.51;100.00;102511.19;5063564;28;20029;-67
2022/04/15 05:24:56;;;;;;;57.78;26.20;;;;;;;6.52;100.00;102509.44;5066505;28;20039;-68
2022/04/15 05:27:22;;;;;;;42.30;26.05;;;;;;;6.56;100.00;102512.28;5064841;28;20025;-69
2022/04/15 05:29:47;;;;;;;41.83;26.88;;;;;;;6.60;100.00;102518.63;5065429;28;20029;-69
2022/04/15 05:32:13;;;;;;;45.67;26.13;;;;;;;6.64;100.00;102520.56;5066186;28;20387;-69
2022/04/15 05:34:38;;;;;;;37.78;25.95;;;;;;;6.65;100.00;102510.94;5068296;28;20017;-66
2022/04/15 05:37:04;;;;;;;36.78;24.80;;;;;;;6.72;100.00;102523.53;5072162;28;20017;-67
2022/04/15 05:39:29;;;;;;;35.92;24.80;;;;;;;6.74;100.00;102533.31;5073423;28;20028;-67
2022/04/15 05:41:55;;;;;;;38.15;26.30;;;;;;;6.75;100.00;102529.81;5074243;28;20056;-68
2022/04/15 05:44:20;;;;;;;39.28;24.00;;;;;;;6.78;100.00;102534.34;5073961;28;20055;-68
2022/04/15 05:46:45;;;;;;;40.42;25.38;;;;;;;6.83;100.00;102538.09;5074408;28;20025;-66
2022/04/15 05:49:15;;;;;;;40.03;24.80;;;;;;;6.85;100.00;102548.69;5073688;28;20046;-70
2022/04/15 05:51:45;;;;;;;38.22;25.05;;;;;;;6.89;100.00;102548.88;5072289;28;20031;-68
2022/04/15 05:54:11;;;;;;;40.00;25.10;;;;;;;6.91;100.00;102554.22;5073044;28;20066;-66
2022/04/15 05:56:37;;;;;;;39.47;26.23;;;;;;;6.98;100.00;102559.81;5073785;28;20480;-66
2022/04/15 05:59:03;;;;;;;41.03;26.48;;;;;;;7.02;100.00;102562.59;5073310;28;20039;-67
2022/04/15 06:01:29;;;;;;;47.72;25.58;;;;;;;7.01;100.00;102558.19;5073925;28;20024;-68
2022/04/15 06:03:54;;;;;;;39.22;26.80;;;;;;;7.06;100.00;102556.66;5073946;28;20036;-66
2022/04/15 06:06:19;;;;;;;41.25;27.92;;;;;;;7.10;100.00;102563.84;5070202;28;20069;-67
2022/04/15 06:08:45;;;;;;;40.45;27.52;;;;;;;7.15;100.00;102568.50;5067638;28;20039;-67
2022/04/15 06:11:10;;;;;;;42.15;27.73;;;;;;;7.21;100.00;102577.47;5073548;28;20028;-67
2022/04/15 06:13:37;;;;;;;39.47;27.13;;;;;;;7.18;100.00;102578.28;5072706;28;20150;-67
2022/04/15 06:16:07;;;;;;;41.42;27.55;;;;;;;7.14;100.00;102579.84;5070399;28;20107;-67
2022/04/15 06:18:36;;;;;;;40.88;27.38;;;;;;;7.19;100.00;102582.69;5073118;28;20028;-68
2022/04/15 06:21:02;;;;;;;40.85;27.88;;;;;;;7.19;100.00;102587.94;5067587;28;20029;-71
2022/04/15 06:23:28;;;;;;;42.35;27.92;;;;;;;7.25;100.00;102585.63;5061913;28;20078;-67
2022/04/15 06:25:53;;;;;;;40.45;28.27;;;;;;;7.28;100.00;102580.47;5064735;28;20032;-66
2022/04/15 06:28:22;;;;;;;40.00;27.30;;;;;;;7.30;100.00;102594.59;5061774;28;20068;-69
2022/04/15 06:30:48;;;;;;;38.35;25.65;;;;;;;7.31;100.00;102588.50;5063821;28;20376;-66
2022/04/15 06:33:20;;;;;;;36.25;25.17;;;;;;;7.35;100.00;102591.28;5063321;28;20367;-67
2022/04/15 06:35:45;;;;;;;39.50;24.43;;;;;;;7.35;100.00;102588.66;5064528;28;20115;-67
2022/04/15 06:38:11;;;;;;;35.75;23.45;;;;;;;7.39;100.00;102598.50;5060929;28;20136;-67
2022/04/15 06:40:38;;;;;;;37.42;24.95;;;;;;;7.41;100.00;102596.81;5063665;28;20020;-67
2022/04/15 06:43:04;;;;;;;37.33;24.73;;;;;;;7.52;100.00;102602.56;5061839;28;20043;-67
2022/04/15 06:45:30;;;;;;;37.70;25.00;;;;;;;7.54;100.00;102601.78;5064413;28;20067;-67
2022/04/15 06:47:55;;;;;;;36.30;25.33;;;;;;;7.59;100.00;102604.66;5061350;28;20468;-66
2022/04/15 06:50:20;;;;;;;38.47;24.77;;;;;;;7.63;100.00;102604.84;5067025;28;20020;-67
2022/04/15 06:52:46;;;;;;;35.80;22.60;;;;;;;7.68;100.00;102607.69;5061916;28;20024;-67
2022/04/15 06:55:11;;;;;;;35.60;23.25;;;;;;;7.73;100.00;102618.41;5063763;28;20021;-66
2022/04/15 06:57:37;;;;;;;36.75;23.92;;;;;;;7.75;100.00;102611.50;5061451;28;20029;-66
2022/04/15 07:00:04;;;;;;;35.70;23.30;;;;;;;7.74;100.00;102617.59;5062079;28;20049;-67
2022/04/15 07:02:29;;;;;;;36.78;23.25;;;;;;;7.78;100.00;102619.53;5067785;28;20024;-67
2022/04/15 07:04:55;;;;;;;35.72;24.35;;;;;;;7.82;100.00;102618.81;5072488;28;20118;-66
2022/04/15 07:07:20;;;;;;;35.47;22.58;;;;;;;7.88;100.00;102615.53;5072880;28;20035;-66
2022/04/15 07:09:45;;;;;;;35.65;22.48;;;;;;;7.92;100.00;102618.41;5072650;28;20030;-66
2022/04/15 07:12:11;;;;;;;34.85;22.40;;;;;;;7.90;100.00;102614.78;5070894;28;20434;-66
2022/04/15 07:14:36;;;;;;;36.55;23.00;;;;;;;7.89;100.00;102623.50;5072415;28;20047;-67
2022/04/15 07:17:02;;;;;;;34.15;22.50;;;;;;;7.95;100.00;102622.88;5071925;28;20031;-67
2022/04/15 07:19:27;;;;;;;33.35;22.98;;;;;;;7.97;100.00;102616.84;5072575;28;20040;-67
2022/04/15 07:21:53;;;;;;;34.63;22.48;;;;;;;8.06;100.00;102620.72;5072035;28;20037;-67
2022/04/15 07:24:18;;;;;;;35.22;22.25;;;;;;;8.14;100.00;102627.19;5062553;28;20067;-68
2022/04/15 07:26:43;;;;;;;31.65;20.23;;;;;;;8.17;100.00;102624.72;5062281;28;20057;-69
2022/04/15 07:29:08;;;;;;;31.40;20.08;;;;;;;8.24;100.00;102628.50;5064303;28;20031;-67
2022/04/15 07:31:34;;;;;;;30.95;19.92;;;;;;;8.24;100.00;102631.13;5061193;28;20071;-68
2022/04/15 07:34:00;;;;;;;33.42;21.70;;;;;;;8.26;100.00;102629.50;5064523;28;20024;-67
2022/04/15 07:36:31;;;;;;;34.03;20.30;;;;;;;8.31;100.00;102635.84;5062048;28;20036;-69
2022/04/15 07:38:57;;;;;;;32.00;19.10;;;;;;;8.31;100.00;102634.09;5063813;28;20063;-69
2022/04/15 07:41:22;;;;;;;34.17;21.00;;;;;;;8.22;100.00;102632.81;5062362;28;20020;-68
2022/04/15 07:43:48;;;;;;;34.92;20.77;;;;;;;8.28;100.00;102633.97;5062232;28;20492;-69
2022/04/15 07:46:14;;;;;;;36.20;21.30;;;;;;;8.34;100.00;102639.53;5063416;28;20043;-68
2022/04/15 07:48:39;;;;;;;35.42;22.45;;;;;;;8.40;100.00;102637.97;5061743;28;20028;-66
2022/04/15 07:51:05;;;;;;;33.78;20.92;;;;;;;8.48;100.00;102642.75;5064524;28;20105;-69
2022/04/15 07:53:30;;;;;;;33.95;21.38;;;;;;;8.61;100.00;102638.00;5060961;28;20027;-69
2022/04/15 07:55:55;;;;;;;31.50;19.90;;;;;;;8.68;100.00;102637.41;5063697;28;20455;-70
2022/04/15 07:58:21;;;;;;;33.85;22.27;;;;;;;8.66;100.00;102647.88;5062211;28;20034;-69
2022/04/15 08:00:46;;;;;;;35.60;21.00;;;;;;;8.77;100.00;102642.16;5062093;28;20033;-69
2022/04/15 08:03:11;;;;;;;35.00;21.42;;;;;;;8.81;100.00;102646.69;5063821;28;20032;-69
2022/04/15 08:05:37;;;;;;;33.10;20.02;;;;;;;8.83;100.00;102647.66;5060896;28;20078;-69
2022/04/15 08:08:03;;;;;;;34.35;20.98;;;;;;;8.75;100.00;102644.69;5063052;28;20033;-70
2022/04/15 08:10:28;;;;;;;31.63;19.40;;;;;;;8.80;100.00;102639.63;5061330;28;20503;-69
2022/04/15 08:12:54;;;;;;;31.92;19.45;;;;;;;8.88;100.00;102635.56;5062996;28;20075;-70
2022/04/15 08:15:20;;;;;;;32.45;19.15;;;;;;;8.98;100.00;102642.97;5062352;28;20051;-69
2022/04/15 08:17:45;;;;;;;31.70;18.20;;;;;;;9.07;100.00;102642.44;5061757;28;20460;-70
2022/04/15 08:20:11;;;;;;;30.88;17.88;;;;;;;9.16;100.00;102647.19;5058314;28;20055;-70
2022/04/15 08:22:36;;;;;;;30.95;18.98;;;;;;;9.28;100.00;102645.03;5062424;28;20025;-70
2022/04/15 08:25:04;;;;;;;28.95;17.05;;;;;;;9.36;100.00;102645.31;5061743;28;20100;-70
2022/04/15 08:27:29;;;;;;;27.45;15.93;;;;;;;9.58;100.00;102660.22;5063317;28;20023;-69
2022/04/15 08:29:55;;;;;;;28.25;16.27;;;;;;;10.03;100.00;102644.28;5060956;28;20029;-70
2022/04/15 08:32:21;;;;;;;25.90;13.10;;;;;;;10.38;100.00;102651.63;5063899;28;20421;-70
2022/04/15 08:34:46;;;;;;;24.10;13.05;;;;;;;10.67;100.00;102646.41;5060873;28;20040;-68
2022/04/15 08:37:13;;;;;;;23.92;13.15;;;;;;;11.12;100.00;102654.91;5063175;28;20017;-67
2022/04/15 08:39:39;;;;;;;24.45;12.77;;;;;;;11.33;100.00;102659.09;5065342;28;20112;-67
2022/04/15 08:42:07;;;;;;;23.42;12.70;;;;;;;11.34;100.00;102667.06;5065885;28;20103;-66
2022/04/15 08:44:33;;;;;;;25.80;13.27;;;;;;;11.32;100.00;102663.47;5066528;28;20047;-69
2022/04/15 08:47:01;;;;;;;24.33;12.55;;;;;;;11.48;100.00;102664.81;5065048;28;20041;-69
2022/04/15 08:49:26;;;;;;;23.73;11.85;;;;;;;11.92;100.00;102668.69;5067312;28;20074;-69
2022/04/15 08:51:52;;;;;;;22.40;11.30;;;;;;;12.15;100.00;102664.94;5064579;28;20029;-68
2022/04/15 08:54:18;;;;;;;22.15;11.40;;;;;;;12.35;100.00;102669.91;5062987;28;20028;-68
2022/04/15 08:56:44;;;;;;;24.55;12.55;;;;;;;12.36;100.00;102667.28;5064669;28;20028;-69
2022/04/15 08:59:10;;;;;;;22.80;11.32;;;;;;;12.57;100.00;102666.03;5066966;28;20029;-67
2022/04/15 09:01:35;;;;;;;22.42;11.43;;;;;;;12.68;100.00;102668.94;5063506;28;20028;-69
2022/04/15 09:04:03;;;;;;;23.02;11.68;;;;;;;12.92;100.00;102676.59;5064248;28;20020;-69
2022/04/15 09:06:31;;;;;;;22.58;10.80;;;;;;;13.48;100.00;102677.88;5064829;28;20043;-70
2022/04/15 09:09:04;;;;;;;22.85;11.70;;;;;;;13.47;100.00;102679.66;5063014;28;20029;-71
2022/04/15 09:11:31;;;;;;;22.10;10.35;;;;;;;13.52;100.00;102685.06;5063699;28;20036;-69
2022/04/15 09:13:57;;;;;;;25.60;11.82;;;;;;;13.94;100.00;102684.16;5063802;28;20464;-70
2022/04/15 09:16:25;;;;;;;22.17;10.85;;;;;;;14.06;100.00;102688.81;5066081;28;20029;-72
2022/04/15 09:18:51;;;;;;;22.40;11.10;;;;;;;13.88;100.00;102692.88;5064971;28;20086;-71
2022/04/15 09:21:17;;;;;;;21.98;11.13;;;;;;;13.53;100.00;102682.44;5065861;28;20099;-70
2022/04/15 09:23:50;;;;;;;21.20;10.57;;;;;;;13.39;100.00;102684.78;5066044;28;20410;-70
2022/04/15 09:26:16;;;;;;;22.42;11.07;;;;;;;13.31;100.00;102681.03;5065140;28;20507;-70
2022/04/15 09:28:42;;;;;;;21.67;11.40;;;;;;;13.21;100.00;102690.56;5066240;28;20044;-72
2022/04/15 09:31:13;;;;;;;23.80;11.40;;;;;;;13.06;100.00;102687.53;5064030;28;20079;-69
2022/04/15 09:33:58;;;;;;;22.30;11.45;;;;;;;13.31;100.00;102696.06;5066312;28;20538;-70
2022/04/15 09:36:29;;;;;;;21.42;11.23;;;;;;;13.48;100.00;102694.72;5066109;28;20047;-67
2022/04/15 09:39:01;;;;;;;23.33;11.15;;;;;;;13.51;100.00;102694.75;5064111;28;20032;-68
2022/04/15 09:41:29;;;;;;;21.92;11.07;;;;;;;13.52;100.00;102693.03;5066424;28;20027;-70
2022/04/15 09:43:59;;;;;;;22.75;10.93;;;;;;;14.12;100.00;102696.88;5063901;28;20444;-69
2022/04/15 09:46:27;;;;;;;20.33;9.50;;;;;;;15.07;100.00;102697.66;5065923;28;20476;-68
2022/04/15 09:49:03;;;;;;;22.27;9.98;;;;;;;15.49;100.00;102698.22;5064143;28;20024;-69
2022/04/15 09:51:39;;;;;;;20.10;9.45;;;;;;;15.67;100.00;102698.47;5065936;28;20028;-70
2022/04/15 09:54:06;;;;;;;19.63;9.07;;;;;;;15.99;99.07;102698.00;5063108;28;20048;-69
2022/04/15 09:56:39;;;;;;;19.77;9.02;;;;;;;16.82;100.00;102694.28;5063036;28;20051;-70
2022/04/15 09:59:12;;;;;;;19.95;8.90;;;;;;;17.87;89.07;102689.56;5063019;28;20551;-69
2022/04/15 10:01:44;;;;;;;19.90;8.27;;;;;;;18.45;80.69;102689.69;5063766;28;20465;-69
2022/04/15 10:04:10;;;;;;;19.27;8.45;;;;;;;18.14;77.08;102693.22;5065875;28;20467;-70
2022/04/15 10:06:38;;;;;;;19.77;8.50;;;;;;;18.02;79.86;102694.97;5062706;28;20025;-70
2022/04/15 10:09:06;;;;;;;20.35;8.48;;;;;;;18.10;78.88;102695.91;5066353;28;20042;-69
2022/04/15 10:11:35;;;;;;;18.98;8.13;;;;;;;18.19;77.59;102696.78;5063138;28;20075;-70
2022/04/15 10:14:02;;;;;;;19.55;8.20;;;;;;;17.52;79.24;102698.34;5066161;28;20025;-69
2022/04/15 10:16:28;;;;;;;20.23;8.55;;;;;;;17.63;79.51;102695.72;5062987;28;20120;-70
2022/04/15 10:18:54;;;;;;;20.42;8.63;;;;;;;17.27;77.27;102687.53;5065492;28;20025;-69
2022/04/15 10:21:19;;;;;;;20.65;8.52;;;;;;;16.82;81.13;102694.28;5064021;28;20490;-70
2022/04/15 10:23:45;;;;;;;19.95;8.82;;;;;;;17.40;77.51;102693.81;5063628;28;20029;-70
2022/04/15 10:26:11;;;;;;;18.92;8.45;;;;;;;18.88;70.69;102685.25;5065477;28;20025;-70
2022/04/15 10:28:42;;;;;;;20.17;8.40;;;;;;;18.79;69.36;102688.81;5062828;28;20017;-70
2022/04/15 10:31:11;;;;;;;19.83;8.52;;;;;;;18.49;70.17;102692.38;5065805;28;20115;-70
2022/04/15 10:33:39;;;;;;;19.70;7.90;;;;;;;19.65;65.08;102691.28;5062953;28;20033;-70
2022/04/15 10:36:15;;;;;;;18.25;7.80;;;;;;;21.03;49.80;102684.97;5065624;28;20541;-71
2022/04/15 10:39:02;;;;;;;18.38;7.38;;;;;;;22.69;44.35;102678.22;5063051;28;20060;-70
2022/04/15 10:41:28;;;;;;;17.98;7.03;;;;;;;21.83;42.14;102677.75;5062787;28;20379;-71
2022/04/15 10:43:57;;;;;;;18.75;7.30;;;;;;;20.79;44.03;102678.91;5064502;28;20045;-68
2022/04/15 10:46:30;;;;;;;18.90;7.30;;;;;;;20.58;46.00;102680.00;5063432;28;20445;-70
2022/04/15 10:49:00;;;;;;;18.95;7.35;;;;;;;20.47;45.86;102676.50;5064866;28;20036;-70
2022/04/15 10:51:31;;;;;;;19.80;7.40;;;;;;;21.15;43.86;102676.78;5062721;28;20033;-70
2022/04/15 10:54:28;;;;;;;20.02;7.78;;;;;;;21.89;43.15;102675.88;5065064;28;20034;-70
2022/04/15 10:57:19;;;;;;;18.10;7.35;;;;;;;22.14;42.60;102672.81;5064329;28;20468;-70
2022/04/15 11:02:51;;;;;;;18.00;7.00;;;;;;;25.09;35.32;102669.28;5061586;28;20550;-71
2022/04/15 11:05:53;;;;;;;18.17;6.95;;;;;;;24.68;34.45;102661.38;5063251;28;20048;-71
2022/04/15 11:08:20;;;;;;;18.80;7.25;;;;;;;24.34;33.79;102664.88;5063833;28;20025;-70
2022/04/15 11:10:55;;;;;;;18.55;7.22;;;;;;;24.05;35.96;102671.00;5063967;28;20462;-71